Kiamika, Canada
Current Conditions -  °F | °C
As of 6:00 PM on Thursday 18 Dec 2014 (Local Time) from CYND Reporting Station
Overcast Overcast  
Wind Chill: 18°   Ceiling: 2400
Heat Index: 27°   Visibility: 12mi
Dew Point: 23°   Wind: 8mph
Humidity: 86%   Direction: 290°WNW
Pressure: 30"   Gusts: NA
Location:  46.42°N, 75.37°W
Report Text: CYND 182300Z 29007KT 12SM OVC024 M03/M05 A3000 RMK SC8 SLP162
Loading
Personal Weather Stations






























Interactive Weather Map New forecast layout! Learn more

10-Day Weather Forecast

Advertisements
Track Severe Weather on mobile